Time;durP1;ratioP1;P1;durP2;ratioP2;P2;SDS_P1;SDS_P2;PMS_P1;PMS_P2;Temp;Humidity;BMP_temperature;BMP_pressure;BME280_temperature;BME280_humidity;BME280_pressure;Samples;Min_cycle;Max_cycle;Signal;HPM_P1;HPM_P2
2022/07/24 00:00:40;;;;;;;21.40;8.05;;;;;;;;;;5050553;28;20048;-75
2022/07/24 00:03:06;;;;;;;20.63;8.32;;;;;;;;;;5049652;28;20469;-75
2022/07/24 00:05:33;;;;;;;16.80;8.13;;;;;;;;;;5049298;28;20474;-74
2022/07/24 00:07:59;;;;;;;14.88;7.95;;;;;;;;;;5050800;28;20029;-76
2022/07/24 00:10:25;;;;;;;13.60;7.75;;;;;;;;;;5050108;28;20503;-76
2022/07/24 00:12:51;;;;;;;19.70;8.07;;;;;;;;;;5050235;28;20182;-76
2022/07/24 00:15:17;;;;;;;18.35;8.30;;;;;;;;;;5050247;28;20029;-76
2022/07/24 00:17:43;;;;;;;18.67;8.00;;;;;;;;;;5050605;28;20061;-76
2022/07/24 00:20:10;;;;;;;19.65;7.97;;;;;;;;;;5050132;28;20114;-76
2022/07/24 00:22:36;;;;;;;19.45;8.32;;;;;;;;;;5050107;28;20036;-76
2022/07/24 00:25:03;;;;;;;20.88;7.88;;;;;;;;;;5050246;28;20029;-76
2022/07/24 00:27:29;;;;;;;16.83;7.57;;;;;;;;;;5051605;28;20029;-76
2022/07/24 00:29:55;;;;;;;10.23;7.05;;;;;;;;;;5053678;28;20047;-76
2022/07/24 00:32:21;;;;;;;13.68;7.50;;;;;;;;;;5053807;28;20115;-76
2022/07/24 00:34:47;;;;;;;12.88;7.57;;;;;;;;;;5053954;28;20032;-76
2022/07/24 00:37:13;;;;;;;8.45;6.72;;;;;;;;;;5053592;28;20132;-76
2022/07/24 00:39:39;;;;;;;14.07;7.00;;;;;;;;;;5052460;28;20037;-76
2022/07/24 00:42:05;;;;;;;12.68;7.22;;;;;;;;;;5053614;28;20507;-76
2022/07/24 00:44:31;;;;;;;12.43;6.65;;;;;;;;;;5053913;28;20182;-76
2022/07/24 00:46:57;;;;;;;10.65;7.07;;;;;;;;;;5053378;28;20098;-76
2022/07/24 00:49:23;;;;;;;16.02;7.10;;;;;;;;;;5053664;28;20434;-76
2022/07/24 00:51:51;;;;;;;13.43;6.85;;;;;;;;;;5053325;28;20475;-75
2022/07/24 00:54:19;;;;;;;11.65;7.00;;;;;;;;;;5053493;28;20552;-76
2022/07/24 00:56:47;;;;;;;14.50;6.90;;;;;;;;;;5052754;28;20120;-76
2022/07/24 00:59:14;;;;;;;11.38;6.85;;;;;;;;;;5046884;28;20037;-76
2022/07/24 01:01:40;;;;;;;14.15;6.80;;;;;;;;;;5041737;28;20048;-76
2022/07/24 01:04:06;;;;;;;11.38;6.70;;;;;;;;;;5053171;28;20033;-77
2022/07/24 01:06:32;;;;;;;12.40;6.50;;;;;;;;;;5053022;28;20057;-75
2022/07/24 01:08:58;;;;;;;14.25;6.72;;;;;;;;;;5053544;28;20032;-75
2022/07/24 01:11:25;;;;;;;15.23;7.38;;;;;;;;;;5052864;28;20029;-75
2022/07/24 01:13:51;;;;;;;18.90;7.47;;;;;;;;;;5052358;28;20033;-76
2022/07/24 01:16:17;;;;;;;12.77;7.53;;;;;;;;;;5052892;28;20040;-76
2022/07/24 01:18:43;;;;;;;12.13;6.82;;;;;;;;;;5039796;28;20092;-76
2022/07/24 01:21:10;;;;;;;12.05;6.78;;;;;;;;;;5032588;28;20059;-76
2022/07/24 01:23:36;;;;;;;11.98;6.72;;;;;;;;;;5032809;28;20060;-76
2022/07/24 01:26:02;;;;;;;9.30;6.50;;;;;;;;;;5040609;28;20090;-76
2022/07/24 01:28:28;;;;;;;16.10;6.57;;;;;;;;;;5052788;28;20040;-76
2022/07/24 01:30:54;;;;;;;12.00;6.80;;;;;;;;;;5053233;28;20041;-76
2022/07/24 01:33:20;;;;;;;11.80;6.38;;;;;;;;;;5052298;28;20040;-76
2022/07/24 01:35:46;;;;;;;14.60;6.82;;;;;;;;;;5053246;28;20033;-76
2022/07/24 01:38:13;;;;;;;10.55;6.30;;;;;;;;;;5052180;28;20025;-76
2022/07/24 01:40:39;;;;;;;13.15;6.57;;;;;;;;;;5052775;28;20044;-76
2022/07/24 01:43:05;;;;;;;11.55;6.75;;;;;;;;;;5051645;28;20048;-75
2022/07/24 01:45:31;;;;;;;11.75;6.65;;;;;;;;;;5052910;28;20577;-75
2022/07/24 01:47:58;;;;;;;7.72;6.18;;;;;;;;;;5052333;28;20029;-75
2022/07/24 01:50:24;;;;;;;10.10;6.45;;;;;;;;;;5053083;28;20036;-76
2022/07/24 01:52:50;;;;;;;12.75;6.80;;;;;;;;;;5052126;28;20029;-76
2022/07/24 01:55:16;;;;;;;10.48;6.55;;;;;;;;;;5052829;28;20029;-76
2022/07/24 01:57:42;;;;;;;10.13;6.78;;;;;;;;;;5050950;28;20040;-76
2022/07/24 02:00:12;;;;;;;17.83;7.00;;;;;;;;;;5052734;28;20086;-76
2022/07/24 02:02:42;;;;;;;17.85;7.07;;;;;;;;;;5052371;28;20479;-76
2022/07/24 02:05:10;;;;;;;13.30;7.20;;;;;;;;;;5052331;28;20040;-75
2022/07/24 02:07:36;;;;;;;14.52;7.05;;;;;;;;;;5051979;28;20081;-75
2022/07/24 02:10:03;;;;;;;18.50;7.45;;;;;;;;;;5052597;28;20067;-75
2022/07/24 02:12:28;;;;;;;18.20;7.00;;;;;;;;;;5052040;28;20116;-75
2022/07/24 02:14:54;;;;;;;10.85;7.28;;;;;;;;;;5052199;28;20127;-75
2022/07/24 02:17:20;;;;;;;17.75;7.80;;;;;;;;;;5051705;28;20048;-76
2022/07/24 02:19:46;;;;;;;13.63;6.95;;;;;;;;;;5052111;28;20135;-76
2022/07/24 02:22:12;;;;;;;10.63;6.45;;;;;;;;;;5050560;28;20116;-75
2022/07/24 02:24:38;;;;;;;11.90;6.40;;;;;;;;;;5050872;28;20037;-75
2022/07/24 02:27:04;;;;;;;13.68;6.63;;;;;;;;;;5048862;28;20106;-76
2022/07/24 02:29:30;;;;;;;9.50;6.82;;;;;;;;;;5051861;28;20045;-76
2022/07/24 02:31:56;;;;;;;8.65;6.22;;;;;;;;;;5049786;28;20037;-76
2022/07/24 02:34:22;;;;;;;11.68;6.43;;;;;;;;;;5031484;28;20063;-76
2022/07/24 02:36:49;;;;;;;13.50;7.03;;;;;;;;;;5049185;28;20083;-76
2022/07/24 02:39:15;;;;;;;17.60;6.90;;;;;;;;;;5051409;28;20025;-76
2022/07/24 02:41:41;;;;;;;10.73;6.50;;;;;;;;;;5051496;28;20162;-76
2022/07/24 02:44:07;;;;;;;12.68;6.70;;;;;;;;;;5033756;28;20047;-76
2022/07/24 02:46:33;;;;;;;13.65;7.10;;;;;;;;;;5051496;28;20116;-75
2022/07/24 02:48:58;;;;;;;18.38;7.28;;;;;;;;;;5046745;28;20163;-76
2022/07/24 02:51:24;;;;;;;16.75;7.22;;;;;;;;;;5040091;28;20112;-76
2022/07/24 02:53:50;;;;;;;15.02;6.88;;;;;;;;;;5047742;28;20117;-76
2022/07/24 02:56:16;;;;;;;11.90;7.28;;;;;;;;;;5051233;28;20040;-75
2022/07/24 02:58:42;;;;;;;16.58;7.68;;;;;;;;;;5049002;28;20040;-75
2022/07/24 03:01:08;;;;;;;11.73;7.03;;;;;;;;;;5051348;28;20383;-76
2022/07/24 03:03:34;;;;;;;11.82;7.30;;;;;;;;;;5048457;28;20048;-76
2022/07/24 03:06:00;;;;;;;13.18;6.97;;;;;;;;;;5031148;28;20056;-76
2022/07/24 03:08:26;;;;;;;15.95;7.68;;;;;;;;;;5031345;28;20033;-76
2022/07/24 03:10:52;;;;;;;13.48;6.43;;;;;;;;;;5030928;28;20030;-76
2022/07/24 03:13:18;;;;;;;13.40;7.40;;;;;;;;;;5030644;28;20073;-76
2022/07/24 03:15:44;;;;;;;11.45;6.97;;;;;;;;;;5030251;28;20094;-76
2022/07/24 03:18:10;;;;;;;13.73;6.75;;;;;;;;;;5030621;28;20040;-74
2022/07/24 03:20:36;;;;;;;10.23;6.80;;;;;;;;;;5030972;28;20045;-76
2022/07/24 03:23:02;;;;;;;13.45;7.32;;;;;;;;;;5030417;28;20048;-76
2022/07/24 03:25:28;;;;;;;13.95;7.00;;;;;;;;;;5031108;28;20038;-76
2022/07/24 03:27:54;;;;;;;8.90;6.45;;;;;;;;;;5030928;28;20026;-77
2022/07/24 03:30:21;;;;;;;13.77;6.88;;;;;;;;;;5029309;28;20042;-77
2022/07/24 03:32:47;;;;;;;9.90;6.35;;;;;;;;;;5038600;28;20044;-77
2022/07/24 03:35:13;;;;;;;11.52;7.40;;;;;;;;;;5038105;28;20040;-76
2022/07/24 03:37:39;;;;;;;12.07;7.47;;;;;;;;;;5029795;28;20044;-75
2022/07/24 03:40:06;;;;;;;11.48;7.07;;;;;;;;;;5029357;28;20049;-76
2022/07/24 03:42:32;;;;;;;10.88;6.57;;;;;;;;;;5029887;28;20571;-76
2022/07/24 03:44:58;;;;;;;11.93;6.82;;;;;;;;;;5029630;28;20087;-76
2022/07/24 03:47:23;;;;;;;11.98;7.13;;;;;;;;;;5029969;28;20072;-77
2022/07/24 03:49:49;;;;;;;16.23;7.80;;;;;;;;;;5029412;28;20033;-75
2022/07/24 03:52:15;;;;;;;15.35;7.00;;;;;;;;;;5040114;28;20033;-77
2022/07/24 03:54:41;;;;;;;16.98;7.75;;;;;;;;;;5037088;28;20036;-76
2022/07/24 03:57:08;;;;;;;18.23;7.00;;;;;;;;;;5042456;28;20443;-77
2022/07/24 03:59:34;;;;;;;12.18;7.10;;;;;;;;;;5029157;28;20083;-76
2022/07/24 04:02:00;;;;;;;13.20;6.30;;;;;;;;;;5038394;28;20033;-76
2022/07/24 04:04:26;;;;;;;12.45;6.95;;;;;;;;;;5048964;28;20131;-76
2022/07/24 04:06:52;;;;;;;12.57;6.80;;;;;;;;;;5052036;28;20025;-77
2022/07/24 04:09:18;;;;;;;10.45;6.65;;;;;;;;;;5052359;28;20063;-76
2022/07/24 04:11:45;;;;;;;10.73;6.25;;;;;;;;;;5051933;28;20040;-76
2022/07/24 04:14:11;;;;;;;14.32;6.30;;;;;;;;;;5051963;28;20491;-75
2022/07/24 04:16:37;;;;;;;11.98;7.40;;;;;;;;;;5052042;28;20037;-76
2022/07/24 04:19:03;;;;;;;14.15;6.75;;;;;;;;;;5051322;28;20519;-76
2022/07/24 04:21:29;;;;;;;15.80;6.65;;;;;;;;;;5048864;28;20573;-76
2022/07/24 04:23:55;;;;;;;14.80;6.82;;;;;;;;;;5031872;28;20156;-75
2022/07/24 04:26:21;;;;;;;10.88;7.07;;;;;;;;;;5031050;28;20037;-76
2022/07/24 04:28:47;;;;;;;15.25;7.93;;;;;;;;;;5030274;28;20372;-76
2022/07/24 04:31:13;;;;;;;10.65;6.75;;;;;;;;;;5033480;28;20610;-74
2022/07/24 04:33:39;;;;;;;12.88;7.30;;;;;;;;;;5032774;28;20116;-75
2022/07/24 04:36:05;;;;;;;16.42;7.97;;;;;;;;;;5034128;28;20097;-75
2022/07/24 04:38:34;;;;;;;18.02;8.18;;;;;;;;;;5034114;28;20117;-75
2022/07/24 04:41:01;;;;;;;12.95;7.15;;;;;;;;;;5034398;28;20376;-75
2022/07/24 04:43:27;;;;;;;14.27;7.25;;;;;;;;;;5033996;28;20560;-75
2022/07/24 04:45:53;;;;;;;14.15;7.57;;;;;;;;;;5032812;28;20033;-75
2022/07/24 04:48:19;;;;;;;11.35;7.30;;;;;;;;;;5032614;28;20369;-75
2022/07/24 04:50:45;;;;;;;17.88;7.10;;;;;;;;;;5034119;28;20038;-75
2022/07/24 04:53:11;;;;;;;10.75;6.75;;;;;;;;;;5034456;28;20036;-75
2022/07/24 04:55:37;;;;;;;11.63;6.95;;;;;;;;;;5034088;28;20089;-75
2022/07/24 04:58:03;;;;;;;13.07;7.13;;;;;;;;;;5034186;28;20432;-75
2022/07/24 05:00:29;;;;;;;14.57;7.20;;;;;;;;;;5033773;28;20045;-75
2022/07/24 05:02:55;;;;;;;12.68;6.47;;;;;;;;;;5034399;28;20112;-75
2022/07/24 05:05:21;;;;;;;11.05;7.03;;;;;;;;;;5033131;28;20113;-75
2022/07/24 05:07:47;;;;;;;15.82;6.80;;;;;;;;;;5039251;28;20132;-75
2022/07/24 05:10:13;;;;;;;15.43;6.90;;;;;;;;;;5049558;28;20047;-74
2022/07/24 05:12:39;;;;;;;11.00;6.10;;;;;;;;;;5039941;28;20030;-75
2022/07/24 05:15:06;;;;;;;15.35;6.70;;;;;;;;;;5034315;28;20040;-75
2022/07/24 05:17:34;;;;;;;11.52;6.50;;;;;;;;;;5034230;28;20038;-75
2022/07/24 05:20:00;;;;;;;12.55;6.93;;;;;;;;;;5034690;28;20029;-75
2022/07/24 05:22:26;;;;;;;15.48;6.18;;;;;;;;;;5034787;28;20037;-75
2022/07/24 05:24:52;;;;;;;11.70;6.10;;;;;;;;;;5034838;28;20033;-75
2022/07/24 05:27:18;;;;;;;15.80;6.63;;;;;;;;;;5034673;28;20072;-74
2022/07/24 05:29:44;;;;;;;10.60;6.60;;;;;;;;;;5038467;28;20043;-75
2022/07/24 05:32:10;;;;;;;11.10;6.20;;;;;;;;;;5045750;28;20116;-74
2022/07/24 05:34:35;;;;;;;15.38;6.85;;;;;;;;;;5049563;28;20112;-75
2022/07/24 05:37:01;;;;;;;13.35;6.93;;;;;;;;;;5034231;28;20357;-74
2022/07/24 05:39:27;;;;;;;16.30;6.78;;;;;;;;;;5034056;28;20037;-75
2022/07/24 05:41:53;;;;;;;12.98;6.72;;;;;;;;;;5034514;28;20033;-75
2022/07/24 05:44:19;;;;;;;12.77;6.35;;;;;;;;;;5034298;28;20033;-75
2022/07/24 05:46:45;;;;;;;10.95;6.32;;;;;;;;;;5049890;28;20033;-74
2022/07/24 05:49:11;;;;;;;13.30;7.07;;;;;;;;;;5034292;28;20037;-75
2022/07/24 05:51:37;;;;;;;19.13;7.22;;;;;;;;;;5033934;28;20034;-75
2022/07/24 05:54:03;;;;;;;13.75;6.97;;;;;;;;;;5041580;28;20117;-75
2022/07/24 05:56:29;;;;;;;12.02;6.90;;;;;;;;;;5053975;28;20029;-76
2022/07/24 05:58:55;;;;;;;11.60;6.38;;;;;;;;;;5053853;28;20033;-77
2022/07/24 06:01:21;;;;;;;13.45;6.50;;;;;;;;;;5054010;28;20033;-76
2022/07/24 06:03:47;;;;;;;12.98;6.88;;;;;;;;;;5050798;28;20119;-77
2022/07/24 06:06:13;;;;;;;12.68;7.32;;;;;;;;;;5034062;28;20108;-77
2022/07/24 06:08:39;;;;;;;20.27;7.28;;;;;;;;;;5034921;28;20419;-77
2022/07/24 06:11:05;;;;;;;13.48;6.30;;;;;;;;;;5044164;28;20108;-75
2022/07/24 06:13:31;;;;;;;10.18;6.95;;;;;;;;;;5053624;28;20099;-75
2022/07/24 06:15:57;;;;;;;14.88;6.45;;;;;;;;;;5053778;28;20037;-78
2022/07/24 06:18:23;;;;;;;9.77;6.47;;;;;;;;;;5053742;28;20082;-76
2022/07/24 06:20:49;;;;;;;10.63;6.60;;;;;;;;;;5039169;28;20115;-78
2022/07/24 06:23:15;;;;;;;9.45;6.28;;;;;;;;;;5050306;28;20498;-76
2022/07/24 06:25:41;;;;;;;12.88;6.30;;;;;;;;;;5033103;28;20040;-78
2022/07/24 06:28:07;;;;;;;13.13;7.03;;;;;;;;;;5033669;28;20498;-78
2022/07/24 06:30:33;;;;;;;14.55;7.45;;;;;;;;;;5041088;28;20071;-76
2022/07/24 06:32:59;;;;;;;11.82;7.18;;;;;;;;;;5036723;28;20033;-75
2022/07/24 06:35:27;;;;;;;12.02;7.22;;;;;;;;;;5055215;28;20040;-78
2022/07/24 06:37:55;;;;;;;12.85;6.57;;;;;;;;;;5052254;28;20083;-74
2022/07/24 06:40:21;;;;;;;18.05;7.00;;;;;;;;;;5048427;28;20040;-75
2022/07/24 06:42:48;;;;;;;12.70;7.30;;;;;;;;;;5044096;28;20464;-77
2022/07/24 06:45:15;;;;;;;11.32;6.90;;;;;;;;;;5031664;28;20365;-78
2022/07/24 06:47:41;;;;;;;12.55;6.80;;;;;;;;;;5044780;28;20040;-76
2022/07/24 06:50:08;;;;;;;16.67;7.43;;;;;;;;;;5033008;28;20112;-76
2022/07/24 06:52:34;;;;;;;12.85;6.53;;;;;;;;;;5032829;28;20108;-75
2022/07/24 06:55:00;;;;;;;13.45;6.95;;;;;;;;;;5032650;28;20092;-76
2022/07/24 06:57:26;;;;;;;10.52;7.10;;;;;;;;;;5032648;28;20025;-78
2022/07/24 06:59:53;;;;;;;10.05;7.03;;;;;;;;;;5031843;28;20116;-79
2022/07/24 07:02:20;;;;;;;11.82;6.60;;;;;;;;;;5032224;28;20113;-79
2022/07/24 07:04:46;;;;;;;11.82;6.55;;;;;;;;;;5032255;28;20451;-78
2022/07/24 07:07:12;;;;;;;10.65;6.07;;;;;;;;;;5032039;28;20034;-79
2022/07/24 07:09:38;;;;;;;10.98;5.07;;;;;;;;;;5031400;28;20373;-80
2022/07/24 07:12:04;;;;;;;12.85;6.13;;;;;;;;;;5031602;28;20503;-80
2022/07/24 07:14:30;;;;;;;9.60;5.88;;;;;;;;;;5036426;28;20072;-79
2022/07/24 07:16:56;;;;;;;12.48;7.03;;;;;;;;;;5038612;28;20149;-79
2022/07/24 07:19:22;;;;;;;13.95;7.40;;;;;;;;;;5044097;28;20052;-78
2022/07/24 07:21:48;;;;;;;12.77;7.45;;;;;;;;;;5032290;28;20504;-78
2022/07/24 07:24:14;;;;;;;14.73;7.20;;;;;;;;;;5031874;28;20036;-79
2022/07/24 07:26:40;;;;;;;14.23;7.15;;;;;;;;;;5039273;28;20038;-80
2022/07/24 07:29:06;;;;;;;17.33;7.53;;;;;;;;;;5030495;28;20431;-77
2022/07/24 07:31:32;;;;;;;11.07;6.80;;;;;;;;;;5031553;28;20034;-78
2022/07/24 07:33:59;;;;;;;14.05;6.93;;;;;;;;;;5032264;28;20038;-78
2022/07/24 07:36:25;;;;;;;10.50;6.75;;;;;;;;;;5035233;28;20495;-78
2022/07/24 07:38:51;;;;;;;13.63;6.60;;;;;;;;;;5051648;28;20029;-78
2022/07/24 07:41:19;;;;;;;12.80;7.10;;;;;;;;;;5054907;28;20037;-78
2022/07/24 07:43:48;;;;;;;13.40;6.65;;;;;;;;;;5055037;28;20040;-79
2022/07/24 07:46:14;;;;;;;11.38;6.25;;;;;;;;;;5056216;28;20116;-79
2022/07/24 07:48:40;;;;;;;9.65;5.75;;;;;;;;;;5056218;28;20032;-78
2022/07/24 07:51:06;;;;;;;10.30;6.30;;;;;;;;;;5037727;28;20037;-78
2022/07/24 07:53:32;;;;;;;12.93;6.35;;;;;;;;;;5036979;28;20481;-78
2022/07/24 07:55:58;;;;;;;12.10;6.50;;;;;;;;;;5036653;28;20038;-78
2022/07/24 07:58:26;;;;;;;12.57;6.75;;;;;;;;;;5040740;28;20040;-77
2022/07/24 08:00:52;;;;;;;11.60;6.10;;;;;;;;;;5037907;28;20396;-80
2022/07/24 08:03:18;;;;;;;10.98;6.38;;;;;;;;;;5035727;28;20460;-80
2022/07/24 08:05:44;;;;;;;9.85;6.70;;;;;;;;;;5035631;28;20041;-77
2022/07/24 08:08:10;;;;;;;13.43;6.60;;;;;;;;;;5034977;28;20033;-78
2022/07/24 08:10:36;;;;;;;11.65;6.68;;;;;;;;;;5040515;28;20543;-77
2022/07/24 08:13:02;;;;;;;11.77;6.53;;;;;;;;;;5054826;28;20028;-78
2022/07/24 08:15:29;;;;;;;16.90;6.40;;;;;;;;;;5055354;28;20052;-78
2022/07/24 08:17:56;;;;;;;10.95;6.18;;;;;;;;;;5055342;28;20032;-78
2022/07/24 08:20:24;;;;;;;12.52;6.35;;;;;;;;;;5054515;28;20127;-78
2022/07/24 08:22:50;;;;;;;10.00;5.65;;;;;;;;;;5054222;28;20086;-78
2022/07/24 08:25:16;;;;;;;11.93;5.82;;;;;;;;;;5037749;28;20049;-77
2022/07/24 08:27:42;;;;;;;9.13;5.63;;;;;;;;;;5038835;28;20033;-78
2022/07/24 08:30:09;;;;;;;11.75;5.40;;;;;;;;;;5034034;28;20541;-77
2022/07/24 08:32:36;;;;;;;8.73;5.22;;;;;;;;;;5034713;28;20484;-78
2022/07/24 08:35:02;;;;;;;9.40;5.80;;;;;;;;;;5035187;28;20037;-79
2022/07/24 08:37:28;;;;;;;11.98;6.32;;;;;;;;;;5035104;28;20369;-78
2022/07/24 08:39:54;;;;;;;13.77;6.07;;;;;;;;;;5035110;28;20037;-77
2022/07/24 08:42:21;;;;;;;15.20;6.35;;;;;;;;;;5034698;28;20040;-77
2022/07/24 08:44:47;;;;;;;13.45;6.00;;;;;;;;;;5036444;28;20104;-78
2022/07/24 08:47:15;;;;;;;10.60;6.22;;;;;;;;;;5046019;28;20026;-77
2022/07/24 08:49:44;;;;;;;11.63;6.20;;;;;;;;;;5046364;28;20025;-76
2022/07/24 08:52:10;;;;;;;11.20;6.13;;;;;;;;;;5054836;28;20033;-77
2022/07/24 08:54:36;;;;;;;11.82;6.32;;;;;;;;;;5053433;28;20029;-77
2022/07/24 08:57:04;;;;;;;15.57;6.35;;;;;;;;;;5054515;28;20032;-77
2022/07/24 08:59:30;;;;;;;12.07;6.20;;;;;;;;;;5044280;28;20125;-77
2022/07/24 09:01:56;;;;;;;8.88;6.05;;;;;;;;;;5054280;28;20099;-77
2022/07/24 09:04:41;;;;;;;12.10;5.30;;;;;;;;;;5054204;28;20033;-77
2022/07/24 09:07:10;;;;;;;9.00;5.25;;;;;;;;;;5053089;28;20044;-77
2022/07/24 09:09:38;;;;;;;14.02;5.40;;;;;;;;;;5054350;28;20111;-77
2022/07/24 09:12:15;;;;;;;10.07;4.70;;;;;;;;;;5048427;28;20369;-77
2022/07/24 09:14:46;;;;;;;11.02;4.95;;;;;;;;;;5032602;28;20116;-77
2022/07/24 09:17:18;;;;;;;8.85;4.97;;;;;;;;;;5032601;28;20034;-78
2022/07/24 09:19:57;;;;;;;12.07;5.47;;;;;;;;;;5032394;28;20381;-77
2022/07/24 09:22:27;;;;;;;12.57;5.35;;;;;;;;;;5032122;28;20038;-77
2022/07/24 09:25:08;;;;;;;10.43;5.18;;;;;;;;;;5051005;28;20411;-77
2022/07/24 09:27:37;;;;;;;7.43;5.20;;;;;;;;;;5053491;28;20100;-77
2022/07/24 09:30:04;;;;;;;10.75;5.43;;;;;;;;;;5050496;28;20484;-77
2022/07/24 09:32:31;;;;;;;8.88;5.00;;;;;;;;;;5032328;28;20029;-77
2022/07/24 09:34:57;;;;;;;9.95;5.38;;;;;;;;;;5032755;28;20037;-77
2022/07/24 09:37:26;;;;;;;7.80;4.65;;;;;;;;;;5034459;28;20065;-76
2022/07/24 09:40:04;;;;;;;6.70;4.45;;;;;;;;;;5034379;28;20424;-77
2022/07/24 09:42:38;;;;;;;10.30;4.93;;;;;;;;;;5034423;28;20499;-77
2022/07/24 09:45:07;;;;;;;8.55;4.63;;;;;;;;;;5034523;28;20029;-77
2022/07/24 09:47:35;;;;;;;8.93;4.93;;;;;;;;;;5034331;28;20034;-77
2022/07/24 09:50:15;;;;;;;8.98;5.22;;;;;;;;;;5034514;28;20107;-78
2022/07/24 09:52:43;;;;;;;7.57;4.68;;;;;;;;;;5034383;28;20376;-76
2022/07/24 09:55:23;;;;;;;13.57;5.35;;;;;;;;;;5034177;28;20034;-76
2022/07/24 09:57:49;;;;;;;9.40;4.70;;;;;;;;;;5033487;28;20033;-76
2022/07/24 10:00:16;;;;;;;10.05;4.72;;;;;;;;;;5032705;28;20044;-77
2022/07/24 10:02:44;;;;;;;11.00;4.93;;;;;;;;;;5034132;28;20034;-77
2022/07/24 10:05:12;;;;;;;11.32;5.18;;;;;;;;;;5034087;28;20481;-76
2022/07/24 10:07:39;;;;;;;14.15;5.45;;;;;;;;;;5033591;28;20034;-76
2022/07/24 10:10:05;;;;;;;10.60;5.00;;;;;;;;;;5033806;28;20059;-76
2022/07/24 10:12:32;;;;;;;9.57;5.40;;;;;;;;;;5033686;28;20038;-76
2022/07/24 10:15:00;;;;;;;13.40;5.57;;;;;;;;;;5033563;28;20034;-75
2022/07/24 10:17:46;;;;;;;11.70;5.30;;;;;;;;;;5033614;28;20388;-76
2022/07/24 10:20:21;;;;;;;9.90;4.80;;;;;;;;;;5033423;28;20038;-76
2022/07/24 10:23:03;;;;;;;12.93;5.32;;;;;;;;;;5033454;28;20034;-76
2022/07/24 10:25:33;;;;;;;7.80;4.57;;;;;;;;;;5033613;28;20458;-76
2022/07/24 10:28:02;;;;;;;7.50;4.38;;;;;;;;;;5033319;28;20411;-76
2022/07/24 10:30:28;;;;;;;10.35;4.72;;;;;;;;;;5033117;28;20450;-76
2022/07/24 10:32:54;;;;;;;12.07;5.35;;;;;;;;;;5032190;28;20046;-76
2022/07/24 10:35:24;;;;;;;7.45;4.68;;;;;;;;;;5033377;28;20029;-76
2022/07/24 10:38:16;;;;;;;7.90;5.22;;;;;;;;;;5033386;28;20460;-75
2022/07/24 10:40:48;;;;;;;8.70;4.88;;;;;;;;;;5033234;28;20037;-76
2022/07/24 10:43:19;;;;;;;9.18;4.78;;;;;;;;;;5032942;28;20091;-76
2022/07/24 10:45:54;;;;;;;10.32;5.40;;;;;;;;;;5033088;28;20443;-76
2022/07/24 10:48:20;;;;;;;11.45;5.28;;;;;;;;;;5032926;28;20112;-76
2022/07/24 10:50:58;;;;;;;8.98;5.30;;;;;;;;;;5033204;28;20061;-76
2022/07/24 10:53:26;;;;;;;9.38;5.90;;;;;;;;;;5033003;28;20029;-76
2022/07/24 10:55:54;;;;;;;8.73;5.10;;;;;;;;;;5033078;28;20125;-76
2022/07/24 10:58:21;;;;;;;8.63;4.78;;;;;;;;;;5031797;28;20132;-76
2022/07/24 11:00:50;;;;;;;9.43;4.72;;;;;;;;;;5032916;28;20084;-77
2022/07/24 11:03:24;;;;;;;9.02;4.50;;;;;;;;;;5032945;28;20034;-77
2022/07/24 11:06:10;;;;;;;7.85;4.50;;;;;;;;;;5031605;28;20088;-77
2022/07/24 11:09:01;;;;;;;10.50;4.55;;;;;;;;;;5032662;28;20029;-77
2022/07/24 11:11:27;;;;;;;7.82;4.53;;;;;;;;;;5032611;28;20040;-77
2022/07/24 11:13:57;;;;;;;8.30;4.72;;;;;;;;;;5031620;28;20495;-77
2022/07/24 11:16:33;;;;;;;9.43;4.43;;;;;;;;;;5032922;28;20033;-77
2022/07/24 11:19:01;;;;;;;9.35;4.57;;;;;;;;;;5032630;28;20092;-79
2022/07/24 11:21:37;;;;;;;7.20;4.18;;;;;;;;;;5032815;28;20044;-78
2022/07/24 11:24:22;;;;;;;8.07;4.45;;;;;;;;;;5032523;28;20029;-77
2022/07/24 11:26:56;;;;;;;10.13;4.80;;;;;;;;;;5032683;28;20038;-77
2022/07/24 11:29:30;;;;;;;9.35;4.43;;;;;;;;;;5032633;28;20053;-79
2022/07/24 11:32:00;;;;;;;8.57;4.28;;;;;;;;;;5032433;28;20059;-80
2022/07/24 11:34:28;;;;;;;12.35;4.68;;;;;;;;;;5032509;28;20036;-78
2022/07/24 11:36:56;;;;;;;12.30;4.72;;;;;;;;;;5032594;28;20065;-78
2022/07/24 11:39:29;;;;;;;9.15;4.10;;;;;;;;;;5032479;28;20033;-77
2022/07/24 11:42:00;;;;;;;9.18;4.18;;;;;;;;;;5032656;28;20112;-78
2022/07/24 11:44:31;;;;;;;13.77;4.63;;;;;;;;;;5032455;28;20495;-78
2022/07/24 11:47:00;;;;;;;6.75;4.22;;;;;;;;;;5032706;28;20485;-77
2022/07/24 11:49:27;;;;;;;13.60;4.35;;;;;;;;;;5032867;28;20333;-77
2022/07/24 11:51:55;;;;;;;6.85;3.90;;;;;;;;;;5032652;28;20040;-79
2022/07/24 11:54:30;;;;;;;10.38;4.38;;;;;;;;;;5032212;28;20038;-77
2022/07/24 11:56:56;;;;;;;13.00;4.18;;;;;;;;;;5031190;28;20028;-78
2022/07/24 11:59:23;;;;;;;9.00;4.35;;;;;;;;;;5032467;28;20069;-78
2022/07/24 12:01:49;;;;;;;9.93;4.47;;;;;;;;;;5032582;28;20430;-79
2022/07/24 12:04:20;;;;;;;7.05;4.20;;;;;;;;;;5032389;28;20033;-78
2022/07/24 12:06:47;;;;;;;10.53;4.50;;;;;;;;;;5031440;28;20104;-78
2022/07/24 12:09:13;;;;;;;6.10;4.00;;;;;;;;;;5032415;28;20045;-79
2022/07/24 12:11:39;;;;;;;13.82;4.40;;;;;;;;;;5032459;28;20038;-81
2022/07/24 12:14:16;;;;;;;9.77;4.00;;;;;;;;;;5032511;28;20037;-78
2022/07/24 12:16:44;;;;;;;6.68;4.30;;;;;;;;;;5032682;28;20065;-77
2022/07/24 12:19:24;;;;;;;10.43;4.00;;;;;;;;;;5032329;28;20488;-77
2022/07/24 12:21:53;;;;;;;7.07;3.50;;;;;;;;;;5032544;28;20041;-78
2022/07/24 12:24:21;;;;;;;11.65;4.20;;;;;;;;;;5035772;28;20469;-77
2022/07/24 12:26:57;;;;;;;11.82;4.10;;;;;;;;;;5036031;28;20037;-79
2022/07/24 12:29:25;;;;;;;8.77;3.88;;;;;;;;;;5036037;28;20054;-83
2022/07/24 12:32:16;;;;;;;7.15;4.07;;;;;;;;;;5035951;28;20029;-79
2022/07/24 12:34:47;;;;;;;8.20;3.45;;;;;;;;;;5036070;28;20377;-80
2022/07/24 12:37:17;;;;;;;7.68;4.18;;;;;;;;;;5035929;28;20033;-78
2022/07/24 12:39:52;;;;;;;8.23;3.65;;;;;;;;;;5035625;28;20527;-81
2022/07/24 12:42:31;;;;;;;7.70;3.80;;;;;;;;;;5035747;28;20400;-80
2022/07/24 12:45:09;;;;;;;8.18;3.97;;;;;;;;;;5035498;28;20044;-77
2022/07/24 12:48:06;;;;;;;14.25;5.07;;;;;;;;;;5035414;28;20045;-79
2022/07/24 12:50:32;;;;;;;7.05;3.90;;;;;;;;;;5035166;28;20037;-81
2022/07/24 12:53:08;;;;;;;9.38;4.10;;;;;;;;;;5035456;28;20365;-82
2022/07/24 12:55:35;;;;;;;9.10;4.60;;;;;;;;;;5035541;28;20037;-81
2022/07/24 12:58:03;;;;;;;10.15;4.97;;;;;;;;;;5035533;28;20029;-80
2022/07/24 13:00:31;;;;;;;8.43;4.25;;;;;;;;;;5035260;28;20119;-79
2022/07/24 13:02:57;;;;;;;11.73;4.13;;;;;;;;;;5035117;28;20183;-83
2022/07/24 13:05:45;;;;;;;10.13;4.38;;;;;;;;;;5035405;28;20155;-80
2022/07/24 13:08:11;;;;;;;8.13;3.88;;;;;;;;;;5035122;28;20029;-81
2022/07/24 13:10:37;;;;;;;9.27;3.95;;;;;;;;;;5035036;28;20042;-78
2022/07/24 13:13:03;;;;;;;10.95;4.32;;;;;;;;;;5034836;28;20038;-77
2022/07/24 13:15:29;;;;;;;8.82;4.40;;;;;;;;;;5034627;28;20041;-80
2022/07/24 13:17:55;;;;;;;9.70;3.90;;;;;;;;;;5034870;28;20040;-78
2022/07/24 13:20:21;;;;;;;9.05;3.90;;;;;;;;;;5034666;28;20037;-79
2022/07/24 13:22:47;;;;;;;8.07;4.03;;;;;;;;;;5034761;28;20052;-77
2022/07/24 13:25:13;;;;;;;10.45;4.10;;;;;;;;;;5034834;28;20392;-81
2022/07/24 13:27:39;;;;;;;8.15;4.13;;;;;;;;;;5034909;28;20034;-77
2022/07/24 13:30:05;;;;;;;6.80;4.43;;;;;;;;;;5034743;28;20441;-78
2022/07/24 13:32:31;;;;;;;9.38;4.00;;;;;;;;;;5034539;28;20033;-81
2022/07/24 13:34:57;;;;;;;7.43;4.03;;;;;;;;;;5034287;28;20053;-80
2022/07/24 13:37:23;;;;;;;9.32;4.07;;;;;;;;;;5034706;28;20033;-76
2022/07/24 13:39:49;;;;;;;6.03;3.90;;;;;;;;;;5034500;28;20121;-79
2022/07/24 13:42:16;;;;;;;6.25;3.88;;;;;;;;;;5034797;28;20108;-77
2022/07/24 13:44:42;;;;;;;6.07;4.13;;;;;;;;;;5034481;28;20021;-77
2022/07/24 13:47:08;;;;;;;10.82;3.80;;;;;;;;;;5034528;28;20030;-82
2022/07/24 13:49:34;;;;;;;7.88;4.22;;;;;;;;;;5034478;28;20030;-80
2022/07/24 13:51:59;;;;;;;9.55;4.18;;;;;;;;;;5034577;28;20025;-79
2022/07/24 13:54:25;;;;;;;5.57;3.50;;;;;;;;;;5034371;28;20095;-79
2022/07/24 13:56:52;;;;;;;7.20;3.95;;;;;;;;;;5034429;28;20033;-79
2022/07/24 13:59:18;;;;;;;6.18;4.00;;;;;;;;;;5034273;28;20030;-78
2022/07/24 14:01:44;;;;;;;7.18;3.90;;;;;;;;;;5034008;28;20091;-80
2022/07/24 14:04:10;;;;;;;8.23;4.20;;;;;;;;;;5034031;28;20487;-79
2022/07/24 14:06:36;;;;;;;6.00;4.03;;;;;;;;;;5034031;28;20041;-83
2022/07/24 14:09:04;;;;;;;8.60;3.90;;;;;;;;;;5034123;28;20510;-80
2022/07/24 14:11:30;;;;;;;10.70;4.10;;;;;;;;;;5034176;28;20108;-79
2022/07/24 14:13:57;;;;;;;8.90;4.22;;;;;;;;;;5034031;28;20037;-79
2022/07/24 14:16:23;;;;;;;6.88;4.15;;;;;;;;;;5033921;28;20029;-79
2022/07/24 14:18:49;;;;;;;8.63;4.25;;;;;;;;;;5033339;28;20029;-80
2022/07/24 14:21:15;;;;;;;9.98;3.90;;;;;;;;;;5040123;28;20087;-79
2022/07/24 14:23:40;;;;;;;10.30;4.28;;;;;;;;;;5053518;28;20090;-79
2022/07/24 14:26:06;;;;;;;13.40;4.55;;;;;;;;;;5052235;28;20037;-79
2022/07/24 14:28:33;;;;;;;7.07;4.43;;;;;;;;;;5033855;28;20033;-80
2022/07/24 14:30:59;;;;;;;7.10;3.95;;;;;;;;;;5038512;28;20076;-80
2022/07/24 14:33:25;;;;;;;9.70;4.30;;;;;;;;;;5045669;28;20086;-79
2022/07/24 14:35:51;;;;;;;7.10;3.90;;;;;;;;;;5033380;28;20034;-78